Time;durP1;ratioP1;P1;durP2;ratioP2;P2;SDS_P1;SDS_P2;PMS_P1;PMS_P2;Temp;Humidity;BMP_temperature;BMP_pressure;BME280_temperature;BME280_humidity;BME280_pressure;Samples;Min_cycle;Max_cycle;Signal;HPM_P1;HPM_P2
2021/01/23 00:01:14;;;;;;;7.78;5.35;;;;;;;2.27;90.54;99034.34;4958085;28;20059;-47
2021/01/23 00:03:40;;;;;;;7.68;5.13;;;;;;;2.29;91.00;99023.47;4963409;28;20167;-52
2021/01/23 00:06:06;;;;;;;7.78;5.28;;;;;;;2.29;90.69;99015.88;4963178;28;20121;-49
2021/01/23 00:08:33;;;;;;;10.18;5.50;;;;;;;2.28;90.28;99020.91;4963245;28;20054;-49
2021/01/23 00:10:59;;;;;;;10.90;5.20;;;;;;;2.36;89.66;99016.06;4963266;28;20086;-50
2021/01/23 00:13:25;;;;;;;7.93;4.57;;;;;;;2.20;89.77;99018.13;4963147;28;20109;-47
2021/01/23 00:15:52;;;;;;;6.47;4.43;;;;;;;2.22;89.97;99003.03;4962254;28;20105;-49
2021/01/23 00:18:18;;;;;;;8.13;4.40;;;;;;;2.45;88.55;98991.09;4963109;28;20051;-50
2021/01/23 00:20:44;;;;;;;7.60;5.28;;;;;;;2.47;88.71;98986.97;4962403;28;20547;-50
2021/01/23 00:23:11;;;;;;;7.45;4.90;;;;;;;2.61;88.63;98975.59;4962939;28;20047;-54
2021/01/23 00:25:37;;;;;;;9.07;5.78;;;;;;;2.68;88.46;98971.56;4962686;28;20058;-52
2021/01/23 00:28:04;;;;;;;7.40;4.50;;;;;;;2.73;87.17;98970.06;4962537;28;20121;-51
2021/01/23 00:30:31;;;;;;;6.70;4.32;;;;;;;2.50;88.38;98972.75;4963037;28;20073;-50
2021/01/23 00:32:57;;;;;;;6.30;4.25;;;;;;;2.55;88.06;98990.59;4963177;28;20165;-51
2021/01/23 00:35:24;;;;;;;7.38;4.40;;;;;;;2.24;89.80;98997.22;4962967;28;20042;-49
2021/01/23 00:37:51;;;;;;;7.40;4.25;;;;;;;2.14;90.56;98995.22;4962345;28;20058;-49
2021/01/23 00:40:17;;;;;;;8.40;4.25;;;;;;;2.05;90.58;98999.97;4963035;28;20138;-47
2021/01/23 00:42:43;;;;;;;7.20;4.13;;;;;;;1.98;91.39;98995.50;4965479;28;20105;-53
2021/01/23 00:45:11;;;;;;;6.10;4.57;;;;;;;2.00;91.38;98992.25;4966500;28;20122;-52
2021/01/23 00:47:37;;;;;;;7.70;4.70;;;;;;;2.18;90.88;98996.16;4965759;28;20066;-50
2021/01/23 00:50:04;;;;;;;6.40;4.35;;;;;;;3.01;87.05;99002.03;4966241;28;20054;-51
2021/01/23 00:52:32;;;;;;;5.70;3.85;;;;;;;2.91;86.68;99015.19;4965544;28;20386;-50
2021/01/23 00:54:58;;;;;;;5.07;4.30;;;;;;;3.05;87.17;99018.97;4966464;28;20054;-49
2021/01/23 00:57:24;;;;;;;5.70;4.40;;;;;;;3.39;84.86;99035.97;4966873;28;20047;-53
2021/01/23 00:59:51;;;;;;;7.57;4.88;;;;;;;3.35;84.48;99048.50;4967265;28;20055;-50
2021/01/23 01:02:17;;;;;;;5.55;4.40;;;;;;;2.48;87.92;99044.25;4965681;28;20055;-48
2021/01/23 01:04:44;;;;;;;5.50;4.20;;;;;;;2.32;89.69;99044.59;4965887;28;20137;-50
2021/01/23 01:07:10;;;;;;;7.45;4.93;;;;;;;2.09;91.01;99041.31;4965423;28;20468;-52
2021/01/23 01:09:36;;;;;;;6.55;4.68;;;;;;;2.45;90.67;99047.53;4965661;28;20463;-49
2021/01/23 01:12:03;;;;;;;7.38;4.95;;;;;;;2.19;90.19;99041.66;4965710;28;20054;-50
2021/01/23 01:14:30;;;;;;;6.90;4.85;;;;;;;2.03;90.96;99041.94;4965626;28;20105;-50
2021/01/23 01:16:56;;;;;;;4.38;3.97;;;;;;;2.26;90.52;99038.50;4964162;28;20134;-47
2021/01/23 01:19:23;;;;;;;9.05;4.97;;;;;;;2.08;91.19;99037.94;4965973;28;20066;-55
2021/01/23 01:21:49;;;;;;;7.65;4.60;;;;;;;2.05;91.47;99035.31;4965068;28;20153;-54
2021/01/23 01:24:15;;;;;;;6.55;4.55;;;;;;;2.04;92.16;99042.03;4965340;28;20058;-54
2021/01/23 01:26:42;;;;;;;7.32;4.75;;;;;;;2.04;91.77;99033.59;4965150;28;20051;-54
2021/01/23 01:29:08;;;;;;;6.05;4.75;;;;;;;1.91;92.31;99039.03;4964536;28;20082;-56
2021/01/23 01:31:34;;;;;;;6.15;4.45;;;;;;;2.21;91.75;99041.69;4965312;28;20125;-56
2021/01/23 01:34:02;;;;;;;6.47;4.45;;;;;;;1.94;92.04;99044.16;4965281;28;20062;-53
2021/01/23 01:36:29;;;;;;;9.35;5.28;;;;;;;1.86;92.95;99040.56;4965511;28;20150;-57
2021/01/23 01:38:55;;;;;;;7.15;4.80;;;;;;;1.83;92.91;99031.22;4963932;28;20042;-55
2021/01/23 01:41:22;;;;;;;7.03;5.20;;;;;;;1.82;93.19;99024.44;4965231;28;20142;-54
2021/01/23 01:43:48;;;;;;;8.48;5.30;;;;;;;1.81;93.38;99020.22;4964839;28;20050;-55
2021/01/23 01:46:15;;;;;;;9.52;5.47;;;;;;;1.78;93.63;99020.97;4965172;28;20481;-52
2021/01/23 01:48:42;;;;;;;8.73;5.43;;;;;;;1.74;94.07;99024.19;4965251;28;20077;-58
2021/01/23 01:51:08;;;;;;;8.40;6.00;;;;;;;1.75;93.46;99020.84;4964338;28;20510;-57
2021/01/23 01:53:38;;;;;;;8.07;5.30;;;;;;;1.71;94.04;99020.69;4964502;28;20059;-57
2021/01/23 01:56:06;;;;;;;8.88;5.22;;;;;;;1.74;93.99;99019.13;4964869;28;20062;-56
2021/01/23 01:58:32;;;;;;;5.93;4.70;;;;;;;1.87;93.47;99022.94;4965186;28;20583;-56
2021/01/23 02:00:59;;;;;;;7.15;4.60;;;;;;;1.94;92.88;99026.50;4965281;28;20109;-58
2021/01/23 02:03:43;;;;;;;7.97;4.72;;;;;;;1.86;92.83;99023.75;4965156;28;20130;-56
2021/01/23 02:06:12;;;;;;;7.03;4.95;;;;;;;1.97;92.78;99026.63;4964150;28;20495;-53
2021/01/23 02:08:55;;;;;;;7.40;4.68;;;;;;;1.92;92.12;99025.63;4964922;28;20475;-55
2021/01/23 02:11:46;;;;;;;7.05;4.70;;;;;;;2.44;90.24;99025.59;4960674;28;20051;-53
2021/01/23 02:14:53;;;;;;;7.03;4.63;;;;;;;2.00;92.21;99026.72;4964763;28;20050;-52
2021/01/23 02:17:28;;;;;;;13.48;5.82;;;;;;;1.75;93.03;99015.78;4960117;28;20042;-58
2021/01/23 02:20:19;;;;;;;9.68;6.57;;;;;;;2.48;90.90;99013.94;4964512;28;20059;-59
2021/01/23 02:23:16;;;;;;;8.13;5.07;;;;;;;2.36;90.26;99018.59;4964272;28;20051;-55
2021/01/23 02:25:58;;;;;;;10.02;5.82;;;;;;;1.90;92.30;99017.16;4963108;28;20047;-57
2021/01/23 02:28:48;;;;;;;9.57;5.97;;;;;;;1.79;93.26;99005.00;4960979;28;20091;-57
2021/01/23 02:31:16;;;;;;;8.60;5.78;;;;;;;1.70;93.54;99003.84;4959170;28;20054;-55
2021/01/23 02:33:47;;;;;;;7.32;5.60;;;;;;;1.78;93.80;98993.22;4964216;28;20047;-55
2021/01/23 02:36:14;;;;;;;8.70;5.80;;;;;;;1.92;93.16;99001.22;4959251;28;20043;-53
2021/01/23 02:38:41;;;;;;;9.43;5.72;;;;;;;1.90;92.56;98997.81;4964295;28;20133;-55
2021/01/23 02:41:09;;;;;;;8.40;5.97;;;;;;;1.74;93.58;98996.44;4963514;28;20156;-55
2021/01/23 02:43:44;;;;;;;11.43;6.05;;;;;;;1.78;93.30;98989.81;4964273;28;20065;-58
2021/01/23 02:46:17;;;;;;;10.30;6.25;;;;;;;1.73;93.88;98982.09;4963682;28;20852;-54
2021/01/23 02:48:44;;;;;;;9.60;6.18;;;;;;;1.86;93.53;98983.38;4964327;28;20483;-55
2021/01/23 02:51:32;;;;;;;9.02;6.13;;;;;;;1.91;93.64;98975.94;4964332;28;20106;-59
2021/01/23 02:54:08;;;;;;;8.25;5.88;;;;;;;1.92;93.34;98976.00;4963054;28;20051;-53
2021/01/23 02:56:35;;;;;;;10.20;6.32;;;;;;;1.78;94.45;98970.50;4963862;28;20050;-53
2021/01/23 02:59:05;;;;;;;8.20;5.55;;;;;;;2.04;93.71;98975.53;4963807;28;20470;-58
2021/01/23 03:01:37;;;;;;;6.38;4.85;;;;;;;2.28;92.00;98970.38;4964005;28;20455;-59
2021/01/23 03:04:04;;;;;;;7.40;4.93;;;;;;;2.35;91.25;98971.44;4963661;28;20082;-55
2021/01/23 03:06:32;;;;;;;6.65;5.07;;;;;;;2.09;91.69;98975.69;4963374;28;20050;-57
2021/01/23 03:08:58;;;;;;;6.57;5.18;;;;;;;2.00;91.84;98974.56;4964428;28;20054;-55
2021/01/23 03:11:25;;;;;;;8.10;4.88;;;;;;;1.97;92.04;98979.50;4963445;28;20071;-55
2021/01/23 03:13:51;;;;;;;7.35;5.38;;;;;;;1.93;92.20;98985.28;4963432;28;20101;-57
2021/01/23 03:16:17;;;;;;;8.02;5.15;;;;;;;1.75;92.82;98990.56;4963126;28;20109;-58
2021/01/23 03:18:44;;;;;;;8.27;4.72;;;;;;;1.72;93.72;98994.69;4963257;28;20046;-57
2021/01/23 03:21:10;;;;;;;7.53;4.93;;;;;;;1.69;93.90;98990.38;4963715;28;20054;-56
2021/01/23 03:23:37;;;;;;;7.13;5.10;;;;;;;1.61;94.26;98993.44;4963882;28;20122;-53
2021/01/23 03:26:03;;;;;;;7.95;4.97;;;;;;;1.60;94.28;98992.59;4963282;28;20114;-54
2021/01/23 03:28:30;;;;;;;10.63;5.38;;;;;;;1.63;94.27;98991.84;4964048;28;20046;-57
2021/01/23 03:30:56;;;;;;;6.97;4.43;;;;;;;1.61;94.18;98995.97;4962324;28;20039;-57
2021/01/23 03:33:23;;;;;;;5.97;4.18;;;;;;;1.69;94.26;99003.00;4963891;28;20089;-56
2021/01/23 03:35:49;;;;;;;6.20;4.63;;;;;;;1.65;94.28;99000.31;4963406;28;20105;-56
2021/01/23 03:38:15;;;;;;;7.25;4.20;;;;;;;1.65;94.28;98996.13;4963433;28;20431;-57
2021/01/23 03:40:42;;;;;;;6.72;4.60;;;;;;;1.58;94.49;98994.22;4963169;28;20503;-58
2021/01/23 03:43:08;;;;;;;7.82;4.95;;;;;;;1.67;94.65;98986.97;4963035;28;20507;-57
2021/01/23 03:45:35;;;;;;;5.22;3.88;;;;;;;1.89;94.22;98985.97;4963477;28;20059;-59
2021/01/23 03:48:02;;;;;;;6.18;4.35;;;;;;;2.07;93.18;98980.66;4963492;28;20601;-57
2021/01/23 03:50:28;;;;;;;6.45;3.97;;;;;;;2.00;93.19;98981.28;4963714;28;20054;-53
2021/01/23 03:52:55;;;;;;;6.97;4.60;;;;;;;2.09;92.91;98983.25;4963214;28;20050;-54
2021/01/23 03:55:21;;;;;;;6.78;4.28;;;;;;;2.10;92.81;98990.88;4963266;28;20482;-56
2021/01/23 03:57:48;;;;;;;6.90;4.85;;;;;;;2.04;92.93;98993.22;4963055;28;20503;-53
2021/01/23 04:00:15;;;;;;;5.07;4.15;;;;;;;1.98;92.91;98995.50;4963164;28;20620;-56
2021/01/23 04:02:41;;;;;;;6.50;4.40;;;;;;;1.99;93.32;98992.22;4963290;28;20046;-55
2021/01/23 04:05:09;;;;;;;5.75;4.63;;;;;;;2.11;92.21;98999.28;4962646;28;20059;-58
2021/01/23 04:07:35;;;;;;;8.77;4.30;;;;;;;1.92;92.76;98987.75;4962922;28;20109;-56
2021/01/23 04:10:03;;;;;;;7.13;4.40;;;;;;;2.09;93.06;98986.63;4963134;28;20756;-56
2021/01/23 04:12:32;;;;;;;7.47;4.45;;;;;;;2.06;92.62;98985.69;4963529;28;20055;-52
2021/01/23 04:14:59;;;;;;;6.20;4.10;;;;;;;1.85;93.30;98986.72;4963601;28;20573;-54
2021/01/23 04:17:26;;;;;;;6.05;4.40;;;;;;;1.98;92.98;98988.78;4965737;28;20458;-53
2021/01/23 04:19:53;;;;;;;8.63;4.28;;;;;;;1.77;93.30;98988.13;4966820;28;20061;-57
2021/01/23 04:22:20;;;;;;;6.90;3.88;;;;;;;1.67;93.78;98992.00;4966403;28;20058;-57
2021/01/23 04:24:46;;;;;;;7.85;4.95;;;;;;;1.62;93.98;98992.63;4966818;28;20639;-56
2021/01/23 04:27:13;;;;;;;6.50;4.07;;;;;;;1.58;94.26;98988.31;4966438;28;20055;-52
2021/01/23 04:29:39;;;;;;;7.38;4.50;;;;;;;1.62;94.60;98992.63;4966834;28;20047;-55
2021/01/23 04:32:06;;;;;;;8.30;5.28;;;;;;;1.60;94.89;98989.22;4967178;28;20109;-55
2021/01/23 04:34:32;;;;;;;6.40;4.47;;;;;;;1.96;94.56;98995.47;4967741;28;20150;-52
2021/01/23 04:36:59;;;;;;;7.70;4.38;;;;;;;2.40;91.76;98990.09;4967771;28;20392;-59
2021/01/23 04:39:26;;;;;;;5.57;4.40;;;;;;;1.91;92.37;98989.44;4967791;28;20055;-55
2021/01/23 04:41:52;;;;;;;7.80;4.68;;;;;;;1.82;93.32;98993.31;4967056;28;20043;-54
2021/01/23 04:44:18;;;;;;;7.05;4.68;;;;;;;1.92;93.48;98995.31;4967422;28;20058;-56
2021/01/23 04:46:45;;;;;;;7.78;4.63;;;;;;;1.73;94.24;98987.16;4967200;28;20051;-57
2021/01/23 04:49:12;;;;;;;10.13;5.00;;;;;;;1.60;94.88;98987.53;4967133;28;20423;-56
2021/01/23 04:51:39;;;;;;;7.97;4.88;;;;;;;1.76;94.73;98991.47;4967328;28;20093;-54
2021/01/23 04:54:06;;;;;;;9.55;5.88;;;;;;;1.75;94.11;98993.09;4967319;28;20050;-54
2021/01/23 04:56:32;;;;;;;6.32;4.72;;;;;;;2.10;92.93;98990.00;4967309;28;20137;-58
2021/01/23 04:58:58;;;;;;;8.30;5.00;;;;;;;2.02;92.70;98989.75;4967660;28;20073;-56
2021/01/23 05:01:25;;;;;;;12.70;5.25;;;;;;;1.89;93.40;98987.66;4967268;28;20054;-56
2021/01/23 05:04:01;;;;;;;9.05;5.10;;;;;;;1.84;93.49;98979.06;4966837;28;20086;-54
2021/01/23 05:06:29;;;;;;;9.38;5.82;;;;;;;1.83;93.93;98972.31;4967280;28;20039;-56
2021/01/23 05:08:56;;;;;;;10.32;5.45;;;;;;;1.92;93.58;98962.53;4965150;28;20102;-56
2021/01/23 05:11:48;;;;;;;8.52;4.75;;;;;;;1.93;93.64;98962.56;4967152;28;20459;-58
2021/01/23 05:14:15;;;;;;;6.00;4.28;;;;;;;2.22;92.70;98957.59;4961740;28;20054;-57
2021/01/23 05:16:42;;;;;;;6.20;4.50;;;;;;;2.16;93.04;98964.94;4966772;28;20419;-57
2021/01/23 05:19:09;;;;;;;7.00;4.25;;;;;;;2.04;93.25;98956.19;4966158;28;20422;-59
2021/01/23 05:21:36;;;;;;;7.75;4.55;;;;;;;2.24;93.43;98946.72;4966774;28;20042;-55
2021/01/23 05:24:11;;;;;;;6.03;4.28;;;;;;;2.13;93.15;98947.22;4966837;28;20121;-58
2021/01/23 05:26:38;;;;;;;6.90;4.53;;;;;;;1.89;94.03;98940.56;4966772;28;20047;-53
2021/01/23 05:29:15;;;;;;;8.02;5.47;;;;;;;1.96;94.32;98941.63;4965742;28;20058;-55
2021/01/23 05:31:42;;;;;;;6.50;4.82;;;;;;;1.78;94.54;98949.47;4966322;28;20338;-53
2021/01/23 05:34:31;;;;;;;7.25;4.97;;;;;;;1.80;94.38;98942.78;4966243;28;20058;-59
2021/01/23 05:36:58;;;;;;;7.60;5.20;;;;;;;1.84;94.03;98946.28;4965131;28;20061;-58
2021/01/23 05:39:48;;;;;;;6.85;4.55;;;;;;;1.93;93.57;98936.47;4966490;28;20050;-57
2021/01/23 05:42:16;;;;;;;6.13;4.47;;;;;;;1.92;93.96;98929.72;4961187;28;20478;-54
2021/01/23 05:44:42;;;;;;;6.88;4.63;;;;;;;2.01;93.53;98930.00;4966498;28;20046;-59
2021/01/23 05:47:25;;;;;;;5.65;4.30;;;;;;;1.97;93.56;98925.66;4965492;28;20464;-57
2021/01/23 05:49:55;;;;;;;12.52;7.88;;;;;;;1.98;93.92;98922.31;4965614;28;20064;-53
2021/01/23 05:52:22;;;;;;;18.13;10.57;;;;;;;2.02;93.16;98919.94;4966064;28;20098;-58
2021/01/23 05:54:49;;;;;;;11.13;7.43;;;;;;;2.07;93.55;98925.13;4966263;28;20307;-57
2021/01/23 05:57:16;;;;;;;8.70;6.07;;;;;;;2.09;93.37;98922.69;4966005;28;20054;-55
2021/01/23 05:59:43;;;;;;;11.77;8.85;;;;;;;2.11;93.13;98919.38;4966393;28;20474;-58
2021/01/23 06:02:12;;;;;;;13.40;10.38;;;;;;;2.19;92.72;98912.88;4965699;28;20081;-58
2021/01/23 06:04:42;;;;;;;9.82;8.60;;;;;;;2.22;92.71;98914.66;4966516;28;20046;-59
2021/01/23 06:07:31;;;;;;;12.50;7.85;;;;;;;2.14;92.56;98922.00;4966128;28;20569;-56
2021/01/23 06:09:57;;;;;;;9.88;6.55;;;;;;;2.09;93.09;98923.53;4966273;28;20101;-53
2021/01/23 06:12:29;;;;;;;9.85;6.35;;;;;;;1.94;93.83;98921.41;4965701;28;20062;-55
2021/01/23 06:14:56;;;;;;;8.77;5.82;;;;;;;2.27;92.36;98933.34;4964299;28;20109;-55
2021/01/23 06:17:45;;;;;;;9.88;6.50;;;;;;;2.10;93.26;98935.34;4965614;28;20050;-53
2021/01/23 06:20:39;;;;;;;10.55;6.65;;;;;;;2.29;92.54;98939.28;4965443;28;20057;-53
2021/01/23 06:23:16;;;;;;;11.52;7.47;;;;;;;2.08;92.95;98954.63;4964895;28;20054;-55
2021/01/23 06:25:48;;;;;;;11.77;6.32;;;;;;;2.07;93.42;98947.84;4965600;28;20057;-55
2021/01/23 06:28:16;;;;;;;10.38;7.28;;;;;;;2.01;93.70;98962.81;4960518;28;20054;-51
2021/01/23 06:30:43;;;;;;;11.63;7.03;;;;;;;2.02;94.09;98964.53;4965464;28;20078;-55
2021/01/23 06:33:39;;;;;;;10.05;7.53;;;;;;;2.21;93.95;98966.81;4964983;28;20054;-52
2021/01/23 06:36:06;;;;;;;13.20;8.30;;;;;;;2.17;93.80;98967.53;4946921;28;20129;-57
2021/01/23 06:38:34;;;;;;;12.45;8.13;;;;;;;2.47;92.46;98972.66;4965193;28;20098;-56
2021/01/23 06:41:25;;;;;;;11.75;7.68;;;;;;;2.30;93.99;98972.13;4965735;28;20125;-58
2021/01/23 06:44:07;;;;;;;14.43;8.10;;;;;;;2.03;95.91;98978.84;4964511;28;20042;-58
2021/01/23 06:46:34;;;;;;;11.43;7.95;;;;;;;1.99;96.92;98982.97;4964971;28;20129;-55
2021/01/23 06:49:10;;;;;;;14.25;8.65;;;;;;;2.01;97.08;98983.00;4965398;28;20050;-57
2021/01/23 06:51:40;;;;;;;16.45;9.23;;;;;;;2.01;96.04;98985.53;4965083;28;20049;-59
2021/01/23 06:54:21;;;;;;;13.07;8.30;;;;;;;2.28;96.26;98978.81;4965150;28;20054;-55
2021/01/23 06:56:53;;;;;;;13.35;8.82;;;;;;;2.04;97.29;98983.97;4964795;28;20531;-56
2021/01/23 06:59:24;;;;;;;14.88;8.25;;;;;;;2.26;96.99;98990.53;4960699;28;20415;-55
2021/01/23 07:02:11;;;;;;;16.27;8.82;;;;;;;2.37;96.10;98980.78;4964572;28;20339;-53
2021/01/23 07:04:50;;;;;;;13.07;8.23;;;;;;;2.42;95.39;98986.81;4967288;28;20046;-51
2021/01/23 07:07:18;;;;;;;24.38;11.82;;;;;;;2.53;96.05;98988.00;4946775;28;20058;-52
2021/01/23 07:09:56;;;;;;;21.88;11.25;;;;;;;2.32;97.24;98983.97;4965105;28;20050;-54
2021/01/23 07:12:42;;;;;;;19.95;9.77;;;;;;;2.28;97.97;98983.03;4961207;28;20051;-52
2021/01/23 07:15:11;;;;;;;18.30;10.13;;;;;;;2.21;98.10;98987.00;4964871;28;20050;-57
2021/01/23 07:17:40;;;;;;;15.05;9.07;;;;;;;2.09;99.64;98988.31;4964607;28;20131;-54
2021/01/23 07:20:14;;;;;;;15.68;9.75;;;;;;;1.98;100.00;98986.28;4965097;28;20098;-53
2021/01/23 07:22:42;;;;;;;20.25;9.98;;;;;;;2.11;99.86;98991.72;4964873;28;20110;-54
2021/01/23 07:27:44;;;;;;;13.15;8.07;;;;;;;2.63;98.17;98985.72;4963592;28;20046;-44
2021/01/23 07:30:16;;;;;;;14.20;8.60;;;;;;;2.50;98.42;98994.63;4960315;28;20047;-47
2021/01/23 07:32:45;;;;;;;13.50;8.15;;;;;;;2.10;99.35;98993.41;4965000;28;20049;-45
2021/01/23 07:35:14;;;;;;;13.27;8.02;;;;;;;2.18;99.22;98986.94;4965364;28;20047;-48
2021/01/23 07:37:56;;;;;;;13.65;7.95;;;;;;;2.08;99.65;98999.19;4983238;28;20042;-47
2021/01/23 07:40:26;;;;;;;10.85;7.85;;;;;;;2.41;99.35;98987.63;4981798;28;20411;-44
2021/01/23 07:42:57;;;;;;;14.52;7.88;;;;;;;2.92;96.04;98986.59;4982207;28;20460;-47
2021/01/23 07:45:23;;;;;;;15.02;7.57;;;;;;;2.13;97.10;98990.97;4970910;28;20050;-50
2021/01/23 07:47:59;;;;;;;10.50;7.38;;;;;;;2.09;98.44;98996.72;4973130;28;20054;-43
2021/01/23 07:50:40;;;;;;;14.02;7.60;;;;;;;2.08;99.45;99000.06;4970470;28;20046;-49
2021/01/23 07:53:17;;;;;;;13.65;8.10;;;;;;;1.93;99.85;99007.97;4976811;28;20054;-46
2021/01/23 07:55:48;;;;;;;14.15;8.30;;;;;;;1.84;100.00;99005.16;4972938;28;20046;-45
2021/01/23 07:58:15;;;;;;;14.57;7.45;;;;;;;2.02;100.00;99003.22;4970739;28;20059;-45
2021/01/23 08:00:42;;;;;;;18.17;8.02;;;;;;;1.93;99.54;98994.50;4972734;28;20717;-44
2021/01/23 08:03:09;;;;;;;15.85;7.47;;;;;;;1.87;100.00;99001.91;4970899;28;20615;-49
2021/01/23 08:05:44;;;;;;;13.32;7.78;;;;;;;1.80;99.99;98995.75;4975937;28;20503;-45
2021/01/23 08:08:12;;;;;;;13.68;7.70;;;;;;;1.56;100.00;99002.53;4978458;28;20581;-51
2021/01/23 08:10:39;;;;;;;12.45;8.40;;;;;;;1.37;100.00;98998.50;4972189;28;20062;-50
2021/01/23 08:13:07;;;;;;;13.63;7.82;;;;;;;1.43;100.00;98987.00;4988295;28;20050;-49
2021/01/23 08:15:36;;;;;;;13.10;8.23;;;;;;;1.43;100.00;98989.50;4976150;28;20055;-47
2021/01/23 08:18:19;;;;;;;12.75;8.20;;;;;;;1.42;100.00;98986.91;4971335;28;20117;-46
2021/01/23 08:20:47;;;;;;;13.40;8.18;;;;;;;1.56;100.00;98977.31;4986058;28;20105;-44
2021/01/23 08:23:15;;;;;;;16.02;7.82;;;;;;;1.31;100.00;98984.03;4975765;28;20499;-50
2021/01/23 08:25:55;;;;;;;15.75;8.80;;;;;;;1.12;100.00;98977.50;4972359;28;20526;-49
2021/01/23 08:28:40;;;;;;;16.33;9.38;;;;;;;1.27;100.00;98978.03;5003617;28;20054;-52
2021/01/23 08:31:16;;;;;;;17.83;10.65;;;;;;;1.15;100.00;98971.69;5015466;28;20053;-46
2021/01/23 08:33:44;;;;;;;18.30;9.80;;;;;;;1.12;100.00;98959.84;5016514;28;20056;-47
2021/01/23 08:36:11;;;;;;;19.48;11.18;;;;;;;1.31;100.00;98958.81;5014293;28;20108;-51
2021/01/23 08:38:37;;;;;;;19.10;11.63;;;;;;;1.42;100.00;98961.69;5019427;28;20057;-54
2021/01/23 08:41:08;;;;;;;22.33;12.13;;;;;;;1.06;100.00;98967.19;5011524;28;20141;-44
2021/01/23 08:43:35;;;;;;;22.27;12.55;;;;;;;1.27;100.00;98957.00;5028449;28;20050;-47
2021/01/23 08:46:03;;;;;;;18.83;12.57;;;;;;;1.08;100.00;98952.13;5027579;28;20064;-50
2021/01/23 08:48:30;;;;;;;19.73;12.38;;;;;;;1.22;100.00;98953.47;5027786;28;20163;-47
2021/01/23 08:50:56;;;;;;;23.98;12.93;;;;;;;1.10;100.00;98948.84;5027106;28;20058;-55
2021/01/23 08:53:23;;;;;;;21.77;12.77;;;;;;;1.20;100.00;98950.91;5028093;28;21048;-54
2021/01/23 08:55:50;;;;;;;19.70;12.20;;;;;;;1.25;100.00;98956.97;5025274;28;20100;-55
2021/01/23 08:58:17;;;;;;;19.77;11.73;;;;;;;1.38;100.00;98955.69;5020650;28;20437;-50
2021/01/23 09:00:45;;;;;;;22.48;12.98;;;;;;;1.11;100.00;98960.66;5012300;28;20042;-54
2021/01/23 09:03:15;;;;;;;20.73;12.27;;;;;;;1.09;100.00;98952.19;5010085;28;20046;-49
2021/01/23 09:05:42;;;;;;;18.77;12.52;;;;;;;1.27;100.00;98947.78;5015495;28;20195;-50
2021/01/23 09:08:09;;;;;;;22.10;12.20;;;;;;;1.26;100.00;98938.50;5015870;28;20104;-53
2021/01/23 09:10:36;;;;;;;20.58;11.50;;;;;;;1.36;99.70;98943.84;5011971;28;20490;-48
2021/01/23 09:13:04;;;;;;;18.30;10.90;;;;;;;1.26;99.68;98943.53;5013313;28;20063;-50
2021/01/23 09:15:30;;;;;;;22.38;11.70;;;;;;;1.12;100.00;98933.78;5012135;28;20290;-51
2021/01/23 09:17:56;;;;;;;24.83;12.25;;;;;;;0.84;100.00;98934.50;5012398;28;20115;-50
2021/01/23 09:20:23;;;;;;;23.15;12.00;;;;;;;1.02;100.00;98940.19;5011909;28;20223;-51
2021/01/23 09:22:49;;;;;;;21.92;12.50;;;;;;;0.96;100.00;98939.94;5014824;28;20502;-48
2021/01/23 09:25:16;;;;;;;24.33;12.68;;;;;;;0.89;100.00;98936.38;5019205;28;20099;-47
2021/01/23 09:27:42;;;;;;;22.58;13.30;;;;;;;1.22;100.00;98939.19;5018630;28;20054;-47
2021/01/23 09:30:09;;;;;;;23.38;13.45;;;;;;;1.05;99.58;98934.38;5024607;28;20153;-47
2021/01/23 09:32:36;;;;;;;28.73;14.02;;;;;;;0.96;99.99;98930.72;5020089;28;20104;-48
2021/01/23 09:35:03;;;;;;;21.60;13.77;;;;;;;0.86;100.00;98928.69;5022834;28;20054;-49
2021/01/23 09:37:30;;;;;;;27.60;14.85;;;;;;;1.06;100.00;98926.84;5024304;28;20114;-45
2021/01/23 09:39:57;;;;;;;25.73;15.43;;;;;;;1.09;100.00;98929.50;5026143;28;20290;-46
2021/01/23 09:42:23;;;;;;;30.95;15.88;;;;;;;1.09;99.30;98921.94;5024962;28;20504;-46
2021/01/23 09:44:49;;;;;;;29.33;16.35;;;;;;;1.45;99.26;98924.00;5019471;28;20060;-48
2021/01/23 09:47:17;;;;;;;31.40;16.48;;;;;;;1.25;98.02;98926.72;5022215;28;20406;-50
2021/01/23 09:49:44;;;;;;;35.53;17.98;;;;;;;1.07;98.75;98930.25;5027922;28;20080;-45
2021/01/23 09:52:10;;;;;;;33.53;19.42;;;;;;;1.09;99.66;98918.56;5022765;28;20456;-47
2021/01/23 09:54:37;;;;;;;33.85;18.60;;;;;;;1.22;99.85;98918.19;5018455;28;20054;-48
2021/01/23 09:57:04;;;;;;;36.95;19.75;;;;;;;1.38;99.55;98911.97;5030563;28;20105;-51
2021/01/23 09:59:31;;;;;;;38.72;20.15;;;;;;;1.42;98.38;98908.75;5026792;28;20107;-55
2021/01/23 10:02:01;;;;;;;35.47;20.25;;;;;;;1.24;98.67;98901.44;5015155;28;20061;-45
2021/01/23 10:04:29;;;;;;;34.63;18.75;;;;;;;1.35;99.81;98902.66;5026894;28;20061;-47
2021/01/23 10:06:56;;;;;;;31.92;18.85;;;;;;;1.42;98.90;98898.66;5014057;28;20115;-51
2021/01/23 10:09:23;;;;;;;34.47;18.75;;;;;;;1.00;99.45;98906.50;5019209;28;20061;-45
2021/01/23 10:11:50;;;;;;;36.30;18.77;;;;;;;1.23;99.93;98908.13;5017777;28;20053;-47
2021/01/23 10:14:18;;;;;;;32.97;18.77;;;;;;;0.89;100.00;98911.16;5017215;28;20108;-53
2021/01/23 10:16:45;;;;;;;33.47;19.00;;;;;;;1.22;99.62;98914.00;5014156;28;20057;-56
2021/01/23 10:19:12;;;;;;;32.08;18.33;;;;;;;1.14;99.42;98902.78;5014307;28;20136;-47
2021/01/23 10:21:38;;;;;;;28.63;16.77;;;;;;;1.23;100.00;98904.75;5010776;28;20107;-58
2021/01/23 10:24:05;;;;;;;26.98;16.38;;;;;;;1.45;99.30;98908.88;5011505;28;20123;-53
2021/01/23 10:26:32;;;;;;;25.85;17.20;;;;;;;1.43;99.12;98898.75;5009814;28;20054;-58
2021/01/23 10:28:59;;;;;;;33.58;17.55;;;;;;;1.22;100.00;98900.53;5007992;28;20052;-56
2021/01/23 10:31:26;;;;;;;29.48;17.95;;;;;;;1.62;98.41;98900.19;5009937;28;20046;-58
2021/01/23 10:33:52;;;;;;;29.98;19.40;;;;;;;1.24;99.71;98907.31;5012272;28;20041;-57
2021/01/23 10:36:19;;;;;;;28.55;17.50;;;;;;;1.34;99.23;98900.94;5022511;28;20114;-55
2021/01/23 10:38:46;;;;;;;33.05;17.83;;;;;;;1.35;99.48;98906.84;5020876;28;20446;-53
2021/01/23 10:41:13;;;;;;;32.53;17.67;;;;;;;1.64;98.51;98897.69;5022386;28;20363;-49
2021/01/23 10:43:40;;;;;;;28.02;17.23;;;;;;;1.51;98.01;98912.44;5013925;28;20045;-57
2021/01/23 10:46:07;;;;;;;31.63;18.40;;;;;;;1.64;97.55;98907.78;5025114;28;20107;-56
2021/01/23 10:48:37;;;;;;;29.50;17.17;;;;;;;1.27;99.25;98902.41;5029489;28;20418;-55
2021/01/23 10:51:08;;;;;;;29.27;16.60;;;;;;;1.54;98.60;98891.50;5026232;28;20088;-55
2021/01/23 10:53:38;;;;;;;28.10;15.88;;;;;;;1.82;97.25;98898.28;5012370;28;20052;-55
2021/01/23 10:56:05;;;;;;;27.83;15.98;;;;;;;1.57;97.87;98900.81;5023773;28;20052;-58
2021/01/23 10:58:33;;;;;;;27.58;16.50;;;;;;;1.28;98.79;98905.75;5014505;28;20489;-57
2021/01/23 11:01:00;;;;;;;24.73;15.55;;;;;;;1.36;99.55;98909.41;5012130;28;20107;-58
2021/01/23 11:03:28;;;;;;;29.42;16.73;;;;;;;1.27;99.82;98906.59;5026926;28;20127;-52
2021/01/23 11:05:57;;;;;;;27.90;15.90;;;;;;;1.07;100.00;98905.06;5014694;28;20459;-52
2021/01/23 11:08:25;;;;;;;25.08;14.98;;;;;;;1.66;99.51;98901.97;5008191;28;20049;-51
2021/01/23 11:10:52;;;;;;;32.53;17.15;;;;;;;1.36;99.53;98906.03;5012315;28;20145;-54
2021/01/23 11:13:20;;;;;;;24.42;14.73;;;;;;;1.36;100.00;98901.84;5008615;28;20050;-55
2021/01/23 11:15:46;;;;;;;25.55;15.77;;;;;;;1.12;100.00;98906.06;5010955;28;20050;-50
2021/01/23 11:18:13;;;;;;;27.60;15.40;;;;;;;1.47;100.00;98903.03;5008243;28;20100;-55
2021/01/23 11:20:39;;;;;;;25.65;15.45;;;;;;;1.97;98.46;98908.84;5009697;28;20501;-56
2021/01/23 11:23:06;;;;;;;26.17;15.60;;;;;;;1.33;99.35;98905.94;5009440;28;20058;-55
2021/01/23 11:25:32;;;;;;;25.80;15.27;;;;;;;1.60;98.42;98899.25;5009303;28;20053;-56
2021/01/23 11:27:58;;;;;;;25.90;14.77;;;;;;;1.50;99.48;98900.63;5016574;28;20078;-53
2021/01/23 11:30:25;;;;;;;23.65;15.00;;;;;;;1.55;98.83;98898.25;5010116;28;20049;-58
2021/01/23 11:32:52;;;;;;;24.00;14.20;;;;;;;1.64;98.84;98897.69;5011606;28;20045;-53
2021/01/23 11:35:20;;;;;;;24.60;14.77;;;;;;;1.55;98.75;98895.75;5007030;28;20049;-51
2021/01/23 11:37:48;;;;;;;24.70;14.30;;;;;;;1.61;99.39;98895.94;5015627;28;20531;-56
2021/01/23 11:40:14;;;;;;;23.00;14.02;;;;;;;1.61;98.70;98895.06;5009696;28;20050;-58
2021/01/23 11:42:42;;;;;;;22.80;13.68;;;;;;;1.71;97.69;98900.47;5011377;28;20842;-54
2021/01/23 11:45:09;;;;;;;22.98;13.30;;;;;;;1.56;98.66;98889.88;5010238;28;20513;-51
2021/01/23 11:47:40;;;;;;;21.30;13.02;;;;;;;1.68;99.60;98882.72;5010856;28;20052;-58